Jepson Prairie Reserve, California Weather observations

Data are for 10 minute period ending at time listed.
 Day   Time   Solar   Ave.   Ave.  Ave.  Vector  Max.   Baro.   Total    
  of    of     Rad.   Air    Rel.  Wind   Wind   Wind  Press.  Precip.   
Year   Day            Temp.  Hum.  Speed  Dir.   Gust                    
2014   (PST)  Kw/m2    F      %     mph   deg.    mph    mb.     in.     
-------------------------------------------------------------------------
 360    2:10   0.00   46.2    58   19.9   325    26.1   1017.3    0.00 
 360    2:20   0.00   46.0    58   20.0   323    25.6   1016.9    0.00 
 360    2:30   0.00   46.0    58   20.0   323    25.6   1017.3    0.00 
 360    2:40   0.00   46.0    58   21.2   324    27.9   1017.3    0.00 
 360    2:50   0.00   45.9    59   20.6   325    27.0   1017.3    0.00 
 360    3:00   0.00   45.9    57   19.3   323    25.8   1017.3    0.00 
 360    3:10   0.00   46.4    56   19.9   322    27.9   1017.3    0.00 
 360    3:20   0.00   46.6    56   21.9   326    29.7   1017.3    0.00 
 360    3:30   0.00   45.9    58   19.7   324    24.8   1017.6    0.00 
 360    3:40   0.00   45.8    58   20.6   325    25.4   1017.6    0.00 
 360    3:50   0.00   45.4    60   19.9   326    26.7   1017.6    0.00 
 360    4:00   0.00   45.1    61   20.4   327    25.8   1017.6    0.00 
 360    4:10   0.00   45.1    60   19.0   325    25.1   1017.6    0.00 
 360    4:20   0.00   44.9    61   19.0   324    25.6   1017.6    0.00 
 360    4:30   0.00   45.1    59   20.8   324    26.0   1017.3    0.00 
 360    4:40   0.00   45.0    59   20.3   324    30.0   1017.3    0.00 
 360    4:50   0.00   44.9    60   19.1   320    24.9   1017.6    0.00 
 360    5:00   0.00   44.6    60   18.3   318    22.8   1017.6    0.00 
 360    5:10   0.00   44.6    60   19.1   319    25.8   1017.6    0.00 
 360    5:20   0.00   44.6    60   18.8   317    23.5   1017.6    0.00 
 360    5:30   0.00   44.8    60   19.0   320    24.8   1017.6    0.00 
 360    5:40   0.00   45.2    58   19.2   318    25.9   1018.0    0.00 
 360    5:50   0.00   45.4    57   17.5   318    24.4   1018.0    0.00 
 360    6:00   0.00   45.3    56   16.1   318    20.2   1018.0    0.00 
 360    6:10   0.00   45.4    56   17.9   320    26.0   1018.0    0.00 
 360    6:20   0.00   45.5    56   18.9   323    23.2   1018.0    0.00 
 360    6:30   0.00   45.2    57   19.4   323    26.4   1018.3    0.00 
 360    6:40   0.00   44.9    58   19.2   321    24.9   1018.3    0.00 
 360    6:50   0.00   44.7    58   17.6   321    23.5   1018.3    0.00 
 360    7:00   0.00   44.7    59   19.5   322    27.2   1018.3    0.00 
 360    7:10   0.00   44.4    59   20.2   321    25.2   1018.3    0.00 
 360    7:20   0.00   44.5    59   20.7   322    28.5   1018.3    0.00 
 360    7:30   0.01   44.7    58   21.4   320    28.3   1018.3    0.00 
 360    7:40   0.02   44.4    59   19.4   318    24.7   1018.6    0.00 
 360    7:50   0.04   44.5    59   18.6   319    24.0   1018.6    0.00 
 360    8:00   0.06   44.6    59   19.5   314    24.3   1018.6    0.00 
 360    8:10   0.08   44.9    58   18.7   316    23.9   1019.0    0.00 
 360    8:20   0.11   45.4    57   18.2   319    24.0   1019.0    0.00 
 360    8:30   0.14   45.9    56   19.2   320    24.1   1019.3    0.00 
 360    8:40   0.17   46.4    55   18.7   319    25.1   1019.3    0.00 
 360    8:50   0.19   46.7    55   17.7   322    23.2   1019.6    0.00 
 360    9:00   0.22   46.9    54   19.1   322    25.1   1019.6    0.00 
 360    9:10   0.24   47.3    53   20.3   322    25.1   1020.0    0.00 
 360    9:20   0.27   47.6    53   18.9   322    24.4   1020.0    0.00 
 360    9:30   0.29   47.9    53   20.1   325    25.9   1020.0    0.00 
 360    9:40   0.31   48.2    53   20.6   324    25.9   1020.3    0.00 
 360    9:50   0.33   48.6    52   19.7   325    25.4   1020.3    0.00 
 360   10:00   0.35   48.9    52   19.7   324    25.1   1020.7    0.00 
 360   10:10   0.37   49.3    52   19.2   326    24.5   1020.7    0.00 
 360   10:20   0.39   50.0    51   19.2   325    25.4   1020.7    0.00 
 360   10:30   0.40   50.5    49   22.1   326    28.4   1020.7    0.00 
 360   10:40   0.42   50.8    49   23.4   327    31.0   1020.7    0.00 
 360   10:50   0.43   51.2    49   23.0   332    29.7   1020.3    0.00 
 360   11:00   0.44   51.6    48   23.2   327    29.7   1020.3    0.00 
 360   11:10   0.45   51.9    48   24.0   324    30.7   1020.3    0.00 
 360   11:20   0.46   52.4    48   21.3   330    27.6   1020.3    0.00 
 360   11:30   0.47   52.7    46   23.6   326    29.7   1020.3    0.00 
 360   11:40   0.48   52.7    46   26.3   331    35.1   1020.0    0.00 
 360   11:50   0.48   52.7    44   28.3   327    34.0   1020.0    0.00 
 360   12:00   0.48   52.5    46   28.2   332    34.4   1020.0    0.00 
 360   12:10   0.48   52.5    46   28.1   335    34.6   1019.6    0.00 
 360   12:20   0.48   52.4    45   28.5   338    36.0   1019.6    0.00 
 360   12:30   0.48   52.7    45   27.1   340    34.2   1019.3    0.00 
 360   12:40   0.48   52.9    44   26.9   340    33.2   1019.3    0.00 
 360   12:50   0.47   53.1    45   23.9   342    33.9   1019.3    0.00 
 360   13:00   0.46   53.5    45   23.0   340    29.7   1019.3    0.00 
 360   13:10   0.45   53.6    43   24.8   340    32.3   1019.3    0.00 
 360   13:20   0.44   53.9    43   21.0   342    28.4   1019.3    0.00 
 360   13:30   0.43   54.1    43   18.9   338    26.8   1019.3    0.00 
 360   13:40   0.41   54.4    44   18.5   333    26.3   1019.3    0.00 
 360   13:50   0.40   54.4    42   21.5   335    27.8   1019.6    0.00 
 360   14:00   0.39   54.4    42   20.4   330    27.5   1019.6    0.00 
 360   14:10   0.36   54.4    42   21.1   329    27.4   1019.6    0.00 
 360   14:20   0.35   54.4    42   21.8   330    26.7   1019.6    0.00 
 360   14:30   0.33   54.5    43   17.3   329    24.6   1019.6    0.00 
 360   14:40   0.30   54.5    44   18.5   328    26.0   1019.6    0.00 
 360   14:50   0.28   54.7    44   19.0   331    24.7   1020.0    0.00 
 360   15:00   0.26   54.6    44   19.8   328    31.5   1020.0    0.00 
 360   15:10   0.24   54.4    43   22.0   326    28.9   1020.0    0.00 
 360   15:20   0.21   54.2    45   19.6   333    27.0   1020.0    0.00 
 360   15:30   0.19   54.0    46   18.5   330    23.6   1020.0    0.00 
 360   15:40   0.16   53.9    46   16.8   331    22.5   1020.0    0.00 
 360   15:50   0.14   53.9    46   13.1   331    17.7   1020.0    0.00 
 360   16:00   0.11   53.6    47   13.4   330    18.7   1020.0    0.00 
 360   16:10   0.08   53.4    47   14.9   330    20.0   1020.0    0.00 
 360   16:20   0.06   53.0    49   14.0   335    18.1   1020.0    0.00 
 360   16:30   0.04   52.5    50   10.4   329    14.4   1020.0    0.00 
 360   16:40   0.02   51.8    53    8.4   329    11.0   1020.0    0.00 
 360   16:50   0.01   51.3    55    8.5   334    11.2   1020.0    0.00 
 360   17:00   0.01   51.0    55    9.9   339    12.6   1019.6    0.00 
 360   17:10   0.00   50.6    56    9.5   338    12.1   1019.6    0.00 
 360   17:20   0.00   49.8    58    9.4   338    10.7   1019.6    0.00 
 360   17:30   0.00   49.2    60    8.3   336     9.9   1019.6    0.00 
 360   17:40   0.00   48.1    63    7.1   331     8.6   1019.6    0.00 
 360   17:50   0.00   47.0    64    6.1   328     8.1   1020.0    0.00 
 360   18:00   0.00   47.4    62    6.0   333     9.1   1020.0    0.00 
 360   18:10   0.00   48.1    59    5.8   328     9.1   1020.0    0.00 
 360   18:20   0.00   47.5    57    6.6   322     9.7   1019.6    0.00 
 360   18:30   0.00   47.2    57    7.7   318    10.9   1020.0    0.00 
 360   18:40   0.00   48.3    53    9.9   321    16.2   1020.0    0.00 
 360   18:50   0.00   50.2    49   14.3   325    18.3   1020.0    0.00 
 360   19:00   0.00   50.7    48   15.2   322    19.3   1020.0    0.00 
 360   19:10   0.00   50.5    48   14.7   316    20.5   1020.0    0.00 
 360   19:20   0.00   50.2    50   14.0   315    18.7   1020.0    0.00 
 360   19:30   0.00   49.2    52   11.4   309    14.5   1020.3    0.00 
 360   19:40   0.00   48.6    54   11.7   308    13.7   1020.0    0.00 
 360   19:50   0.00   48.0    55   11.2   311    15.1   1020.0    0.00 
 360   20:00   0.00   48.1    54   12.2   317    15.3   1020.3    0.00 
 360   20:10   0.00   48.9    52   13.9   319    19.0   1020.3    0.00 
 360   20:20   0.00   49.5    51   14.3   314    18.9   1020.3    0.00 
 360   20:30   0.00   49.1    52   14.1   316    18.0   1020.3    0.00 
 360   20:40   0.00   49.1    53   13.4   315    17.1   1020.3    0.00 
 360   20:50   0.00   48.4    55   13.0   312    15.5   1020.7    0.00 
 360   21:00   0.00   48.1    55   14.3   318    17.8   1020.7    0.00 
 360   21:10   0.00   47.9    56   13.2   320    16.2   1020.7    0.00 
 360   21:20   0.00   47.5    57   14.4   323    18.2   1020.7    0.00 
 360   21:30   0.00   48.3    54   14.3   325    17.0   1020.7    0.00 
 360   21:40   0.00   48.4    54   14.7   327    18.5   1021.0    0.00 
 360   21:50   0.00   48.0    57   14.0   336    17.9   1021.0    0.00 
 360   22:00   0.00   47.7    57   15.2   338    17.8   1021.0    0.00 
 360   22:10   0.00   47.0    58   12.4   330    15.1   1021.3    0.00 
 360   22:20   0.00   46.3    60   10.4   329    13.5   1021.7    0.00 
 360   22:30   0.00   45.8    62   11.0   325    12.9   1021.7    0.00 
 360   22:40   0.00   45.5    63   10.2   327    12.3   1021.7    0.00 
 360   22:50   0.00   45.6    62   10.1   328    12.5   1021.7    0.00 
 360   23:00   0.00   45.4    63    9.2   324    11.9   1022.0    0.00 
 360   23:10   0.00   43.7    68    6.7   326     7.5   1022.0    0.00 
 360   23:20   0.00   42.4    70    8.2   327    10.3   1022.0    0.00 
 360   23:30   0.00   43.2    68   11.5   330    14.5   1022.0    0.00 
 360   23:40   0.00   44.8    63   12.3   338    15.0   1022.0    0.00 
 360   23:50   0.00   45.0    63   10.2   357    13.4   1022.4    0.00 
 361    0:00   0.00   41.9    72    8.8    22    11.0   1022.7    0.00 
 361    0:10   0.00   41.0    75    7.9    20     9.8   1022.7    0.00 
 361    0:20   0.00   40.1    78    7.4    15     9.0   1022.7    0.00 
 361    0:30   0.00   39.3    81    7.4    21    10.4   1022.7    0.00 
 361    0:40   0.00   39.7    83   10.2    21    11.3   1022.7    0.00 
 361    0:50   0.00   39.8    86    9.1    10    11.5   1023.0    0.00 
 361    1:00   0.00   39.0    87    9.8     4    12.5   1023.0    0.00 
 361    1:10   0.00   40.6    81   12.3     2    14.2   1022.7    0.00 
 361    1:20   0.00   41.1    79   12.7     4    14.8   1022.7    0.00 
 361    1:30   0.00   41.4    78   11.2     3    13.7   1022.7    0.00 
 361    1:40   0.00   40.2    82    8.4    14    11.1   1022.7    0.00 
 361    1:50   0.00   39.8    82    8.7    16    11.0   1022.7    0.00 
 361    2:00   0.00   40.1    82    9.8    15    13.2   1022.7    0.00 

Return to Jepson Prairie Reserve graphs page.


Western Regional Climate Center,wrcc@dri.edu